KLBB/LBB METAR and TAF weather

Enter ICAO airport designator
Station Type Date Time Source
KLBB METAR 2019/10/23 06:53 UTC NOAA

KLBB 230653Z 22007KT 10SM CLR 12/M04 A2999 RMK AO2 SLP126 T01171044


Station Type Date Time Source
KLBB Decoded METAR 2019/10/23 06:53 UTC NOAA

LUBBOCK INTERNATIONAL AIRPORT , TX, United States (KLBB) 33-40N 101-49W 992M
Oct 23, 2019 - 02:53 AM EDT / 2019.10.23 0653 UTC
Wind: from the SW (220 degrees) at 8 MPH (7 KT):0
Visibility: 10 mile(s):0
Sky conditions: clear
Temperature: 53.1 F (11.7 C)
Dew Point: 24.1 F (-4.4 C)
Relative Humidity: 32%
Pressure (altimeter): 29.99 in. Hg (1015 hPa)
ob: KLBB 230653Z 22007KT 10SM CLR 12/M04 A2999 RMK AO2 SLP126 T01171044
cycle: 7

Station Type Date Time Source
KLBB TAF 2019/10/23 06:45 UTC NOAA

TAF KLBB 230542Z 2306/2406 22011KT P6SM SKC
FM232000 36011KT P6SM SKC

Example: see airport list